sensor_id;sensor_type;location;lat;lon;timestamp;P1;durP1;ratioP1;P2;durP2;ratioP2
72115;SDS011;59991;52.140;5.428;2023-03-03T00:00:32;21.67;;;14.48;;
72115;SDS011;59991;52.140;5.428;2023-03-03T00:01:04;17.20;;;13.27;;
72115;SDS011;59991;52.140;5.428;2023-03-03T00:01:36;18.92;;;13.18;;
72115;SDS011;59991;52.140;5.428;2023-03-03T00:02:08;16.15;;;14.02;;
72115;SDS011;59991;52.140;5.428;2023-03-03T00:02:39;17.60;;;13.75;;
72115;SDS011;59991;52.140;5.428;2023-03-03T00:03:13;16.47;;;13.07;;
72115;SDS011;59991;52.140;5.428;2023-03-03T00:03:47;15.73;;;12.52;;
72115;SDS011;59991;52.140;5.428;2023-03-03T00:04:19;21.17;;;13.85;;
72115;SDS011;59991;52.140;5.428;2023-03-03T00:04:50;19.63;;;14.57;;
72115;SDS011;59991;52.140;5.428;2023-03-03T00:05:22;22.48;;;13.57;;
72115;SDS011;59991;52.140;5.428;2023-03-03T00:05:53;19.20;;;13.88;;
72115;SDS011;59991;52.140;5.428;2023-03-03T00:06:27;18.52;;;13.90;;
72115;SDS011;59991;52.140;5.428;2023-03-03T00:07:02;19.67;;;13.82;;
72115;SDS011;59991;52.140;5.428;2023-03-03T00:07:33;20.02;;;14.52;;
72115;SDS011;59991;52.140;5.428;2023-03-03T00:08:08;17.48;;;13.80;;
72115;SDS011;59991;52.140;5.428;2023-03-03T00:08:40;20.87;;;14.47;;
72115;SDS011;59991;52.140;5.428;2023-03-03T00:09:12;18.55;;;12.60;;
72115;SDS011;59991;52.140;5.428;2023-03-03T00:09:43;20.40;;;13.20;;
72115;SDS011;59991;52.140;5.428;2023-03-03T00:10:15;16.70;;;13.18;;
72115;SDS011;59991;52.140;5.428;2023-03-03T00:10:46;16.63;;;13.30;;
72115;SDS011;59991;52.140;5.428;2023-03-03T00:11:18;17.67;;;12.73;;
72115;SDS011;59991;52.140;5.428;2023-03-03T00:11:52;18.05;;;12.70;;
72115;SDS011;59991;52.140;5.428;2023-03-03T00:12:27;17.35;;;13.85;;
72115;SDS011;59991;52.140;5.428;2023-03-03T00:13:00;17.77;;;14.13;;
72115;SDS011;59991;52.140;5.428;2023-03-03T00:13:32;18.80;;;13.10;;
72115;SDS011;59991;52.140;5.428;2023-03-03T00:14:17;20.37;;;13.33;;
72115;SDS011;59991;52.140;5.428;2023-03-03T00:15:11;17.95;;;13.32;;
72115;SDS011;59991;52.140;5.428;2023-03-03T00:15:45;17.65;;;12.30;;
72115;SDS011;59991;52.140;5.428;2023-03-03T00:16:56;17.63;;;12.82;;
72115;SDS011;59991;52.140;5.428;2023-03-03T00:17:30;17.73;;;12.82;;
72115;SDS011;59991;52.140;5.428;2023-03-03T00:18:05;19.45;;;13.52;;
72115;SDS011;59991;52.140;5.428;2023-03-03T00:18:50;16.27;;;13.30;;
72115;SDS011;59991;52.140;5.428;2023-03-03T00:19:22;17.45;;;13.38;;
72115;SDS011;59991;52.140;5.428;2023-03-03T00:19:54;18.35;;;13.55;;
72115;SDS011;59991;52.140;5.428;2023-03-03T00:21:14;15.88;;;13.38;;
72115;SDS011;59991;52.140;5.428;2023-03-03T00:21:59;17.83;;;12.68;;
72115;SDS011;59991;52.140;5.428;2023-03-03T00:22:34;17.35;;;14.20;;
72115;SDS011;59991;52.140;5.428;2023-03-03T00:23:14;18.75;;;14.30;;
72115;SDS011;59991;52.140;5.428;2023-03-03T00:23:50;17.58;;;13.23;;
72115;SDS011;59991;52.140;5.428;2023-03-03T00:24:23;18.40;;;13.23;;
72115;SDS011;59991;52.140;5.428;2023-03-03T00:25:20;18.90;;;14.98;;
72115;SDS011;59991;52.140;5.428;2023-03-03T00:26:03;20.95;;;13.88;;
72115;SDS011;59991;52.140;5.428;2023-03-03T00:26:52;18.15;;;13.10;;
72115;SDS011;59991;52.140;5.428;2023-03-03T00:27:30;16.03;;;13.80;;
72115;SDS011;59991;52.140;5.428;2023-03-03T00:28:55;20.45;;;14.10;;
72115;SDS011;59991;52.140;5.428;2023-03-03T00:29:37;20.15;;;15.35;;
72115;SDS011;59991;52.140;5.428;2023-03-03T00:30:32;22.58;;;14.93;;
72115;SDS011;59991;52.140;5.428;2023-03-03T00:31:05;18.88;;;13.88;;
72115;SDS011;59991;52.140;5.428;2023-03-03T00:31:46;19.95;;;13.60;;
72115;SDS011;59991;52.140;5.428;2023-03-03T00:32:22;22.92;;;15.60;;
72115;SDS011;59991;52.140;5.428;2023-03-03T00:32:57;19.95;;;13.77;;
72115;SDS011;59991;52.140;5.428;2023-03-03T00:34:24;20.63;;;16.20;;
72115;SDS011;59991;52.140;5.428;2023-03-03T00:34:59;19.60;;;13.38;;
72115;SDS011;59991;52.140;5.428;2023-03-03T00:35:48;23.13;;;14.82;;
72115;SDS011;59991;52.140;5.428;2023-03-03T00:36:25;20.80;;;15.00;;
72115;SDS011;59991;52.140;5.428;2023-03-03T00:36:59;20.33;;;15.32;;
72115;SDS011;59991;52.140;5.428;2023-03-03T00:38:11;18.52;;;14.55;;
72115;SDS011;59991;52.140;5.428;2023-03-03T00:38:47;22.30;;;14.13;;
72115;SDS011;59991;52.140;5.428;2023-03-03T00:39:25;25.80;;;15.75;;
72115;SDS011;59991;52.140;5.428;2023-03-03T00:40:23;19.00;;;14.15;;
72115;SDS011;59991;52.140;5.428;2023-03-03T00:40:56;19.80;;;15.07;;
72115;SDS011;59991;52.140;5.428;2023-03-03T00:41:27;23.58;;;16.52;;
72115;SDS011;59991;52.140;5.428;2023-03-03T00:41:59;22.13;;;16.30;;
72115;SDS011;59991;52.140;5.428;2023-03-03T00:42:34;22.70;;;16.88;;
72115;SDS011;59991;52.140;5.428;2023-03-03T00:43:54;21.98;;;13.93;;
72115;SDS011;59991;52.140;5.428;2023-03-03T00:44:45;22.40;;;16.17;;
72115;SDS011;59991;52.140;5.428;2023-03-03T00:45:36;24.27;;;15.85;;
72115;SDS011;59991;52.140;5.428;2023-03-03T00:46:15;19.73;;;15.23;;
72115;SDS011;59991;52.140;5.428;2023-03-03T00:46:49;25.08;;;16.10;;
72115;SDS011;59991;52.140;5.428;2023-03-03T00:48:11;21.17;;;15.10;;
72115;SDS011;59991;52.140;5.428;2023-03-03T00:48:54;22.05;;;14.98;;
72115;SDS011;59991;52.140;5.428;2023-03-03T00:49:25;24.98;;;15.77;;
72115;SDS011;59991;52.140;5.428;2023-03-03T00:50:37;28.00;;;16.58;;
72115;SDS011;59991;52.140;5.428;2023-03-03T00:51:52;24.05;;;16.13;;
72115;SDS011;59991;52.140;5.428;2023-03-03T00:52:26;24.67;;;17.45;;
72115;SDS011;59991;52.140;5.428;2023-03-03T00:53:06;22.15;;;16.15;;
72115;SDS011;59991;52.140;5.428;2023-03-03T00:53:42;23.67;;;15.57;;
72115;SDS011;59991;52.140;5.428;2023-03-03T00:54:13;24.33;;;16.33;;
72115;SDS011;59991;52.140;5.428;2023-03-03T00:54:45;21.85;;;16.00;;
72115;SDS011;59991;52.140;5.428;2023-03-03T00:55:16;20.80;;;16.33;;
72115;SDS011;59991;52.140;5.428;2023-03-03T00:55:49;25.27;;;17.95;;
72115;SDS011;59991;52.140;5.428;2023-03-03T00:56:22;24.20;;;17.60;;
72115;SDS011;59991;52.140;5.428;2023-03-03T00:56:54;25.67;;;16.35;;
72115;SDS011;59991;52.140;5.428;2023-03-03T00:57:25;22.88;;;18.05;;
72115;SDS011;59991;52.140;5.428;2023-03-03T00:57:56;24.77;;;18.55;;
72115;SDS011;59991;52.140;5.428;2023-03-03T00:58:28;25.23;;;17.65;;
72115;SDS011;59991;52.140;5.428;2023-03-03T00:59:01;24.27;;;16.90;;
72115;SDS011;59991;52.140;5.428;2023-03-03T00:59:32;27.08;;;18.02;;
72115;SDS011;59991;52.140;5.428;2023-03-03T01:00:03;26.15;;;17.63;;
72115;SDS011;59991;52.140;5.428;2023-03-03T01:00:35;24.73;;;17.38;;
72115;SDS011;59991;52.140;5.428;2023-03-03T01:01:07;27.88;;;18.13;;
72115;SDS011;59991;52.140;5.428;2023-03-03T01:01:38;24.50;;;16.00;;
72115;SDS011;59991;52.140;5.428;2023-03-03T01:02:10;27.05;;;18.65;;
72115;SDS011;59991;52.140;5.428;2023-03-03T01:02:42;27.52;;;18.50;;
72115;SDS011;59991;52.140;5.428;2023-03-03T01:03:18;26.00;;;18.42;;
72115;SDS011;59991;52.140;5.428;2023-03-03T01:03:52;28.80;;;18.05;;
72115;SDS011;59991;52.140;5.428;2023-03-03T01:04:23;25.50;;;17.13;;
72115;SDS011;59991;52.140;5.428;2023-03-03T01:04:54;23.95;;;16.58;;
72115;SDS011;59991;52.140;5.428;2023-03-03T01:05:26;25.75;;;18.98;;
72115;SDS011;59991;52.140;5.428;2023-03-03T01:05:58;25.13;;;18.40;;
72115;SDS011;59991;52.140;5.428;2023-03-03T01:06:29;26.08;;;18.80;;
72115;SDS011;59991;52.140;5.428;2023-03-03T01:07:01;27.05;;;17.20;;
72115;SDS011;59991;52.140;5.428;2023-03-03T01:07:32;25.85;;;17.52;;
72115;SDS011;59991;52.140;5.428;2023-03-03T01:08:04;26.70;;;17.95;;
72115;SDS011;59991;52.140;5.428;2023-03-03T01:08:36;26.17;;;18.60;;
72115;SDS011;59991;52.140;5.428;2023-03-03T01:09:08;26.33;;;18.38;;
72115;SDS011;59991;52.140;5.428;2023-03-03T01:09:39;27.53;;;18.23;;
72115;SDS011;59991;52.140;5.428;2023-03-03T01:10:11;26.77;;;17.85;;
72115;SDS011;59991;52.140;5.428;2023-03-03T01:10:44;27.08;;;17.88;;
72115;SDS011;59991;52.140;5.428;2023-03-03T01:11:23;28.30;;;19.17;;
72115;SDS011;59991;52.140;5.428;2023-03-03T01:11:56;26.58;;;17.63;;
72115;SDS011;59991;52.140;5.428;2023-03-03T01:12:28;27.15;;;17.73;;
72115;SDS011;59991;52.140;5.428;2023-03-03T01:12:59;28.08;;;17.17;;
72115;SDS011;59991;52.140;5.428;2023-03-03T01:13:32;25.02;;;18.20;;
72115;SDS011;59991;52.140;5.428;2023-03-03T01:14:08;23.73;;;17.67;;
72115;SDS011;59991;52.140;5.428;2023-03-03T01:14:39;24.27;;;17.00;;
72115;SDS011;59991;52.140;5.428;2023-03-03T01:15:11;25.60;;;16.90;;
72115;SDS011;59991;52.140;5.428;2023-03-03T01:15:44;25.27;;;17.95;;
72115;SDS011;59991;52.140;5.428;2023-03-03T01:16:16;26.13;;;17.80;;
72115;SDS011;59991;52.140;5.428;2023-03-03T01:16:48;24.20;;;18.58;;
72115;SDS011;59991;52.140;5.428;2023-03-03T01:17:20;26.73;;;18.95;;
72115;SDS011;59991;52.140;5.428;2023-03-03T01:17:51;26.38;;;17.67;;
72115;SDS011;59991;52.140;5.428;2023-03-03T01:18:23;29.83;;;18.27;;
72115;SDS011;59991;52.140;5.428;2023-03-03T01:18:54;25.98;;;18.52;;
72115;SDS011;59991;52.140;5.428;2023-03-03T01:19:25;27.92;;;18.55;;
72115;SDS011;59991;52.140;5.428;2023-03-03T01:19:57;28.38;;;17.67;;
72115;SDS011;59991;52.140;5.428;2023-03-03T01:20:29;27.23;;;19.00;;
72115;SDS011;59991;52.140;5.428;2023-03-03T01:21:00;28.05;;;18.35;;
72115;SDS011;59991;52.140;5.428;2023-03-03T01:21:32;25.73;;;18.30;;
72115;SDS011;59991;52.140;5.428;2023-03-03T01:22:03;27.52;;;19.33;;
72115;SDS011;59991;52.140;5.428;2023-03-03T01:22:35;26.02;;;18.20;;
72115;SDS011;59991;52.140;5.428;2023-03-03T01:23:06;27.38;;;18.45;;
72115;SDS011;59991;52.140;5.428;2023-03-03T01:23:38;27.10;;;17.70;;
72115;SDS011;59991;52.140;5.428;2023-03-03T01:24:10;28.75;;;19.67;;
72115;SDS011;59991;52.140;5.428;2023-03-03T01:24:41;31.27;;;20.10;;
72115;SDS011;59991;52.140;5.428;2023-03-03T01:25:12;29.17;;;19.05;;
72115;SDS011;59991;52.140;5.428;2023-03-03T01:25:44;28.47;;;19.30;;
72115;SDS011;59991;52.140;5.428;2023-03-03T01:26:15;26.85;;;18.42;;
72115;SDS011;59991;52.140;5.428;2023-03-03T01:26:47;27.20;;;18.40;;
72115;SDS011;59991;52.140;5.428;2023-03-03T01:27:18;28.35;;;19.80;;
72115;SDS011;59991;52.140;5.428;2023-03-03T01:27:50;27.95;;;19.42;;
72115;SDS011;59991;52.140;5.428;2023-03-03T01:28:21;29.90;;;21.13;;
72115;SDS011;59991;52.140;5.428;2023-03-03T01:28:53;30.20;;;18.92;;
72115;SDS011;59991;52.140;5.428;2023-03-03T01:29:24;27.23;;;18.27;;
72115;SDS011;59991;52.140;5.428;2023-03-03T01:29:56;30.80;;;20.50;;
72115;SDS011;59991;52.140;5.428;2023-03-03T01:30:27;27.35;;;18.20;;
72115;SDS011;59991;52.140;5.428;2023-03-03T01:31:00;24.50;;;17.50;;
72115;SDS011;59991;52.140;5.428;2023-03-03T01:31:33;26.98;;;17.80;;
72115;SDS011;59991;52.140;5.428;2023-03-03T01:32:04;29.83;;;19.00;;
72115;SDS011;59991;52.140;5.428;2023-03-03T01:32:36;28.75;;;19.40;;
72115;SDS011;59991;52.140;5.428;2023-03-03T01:33:07;25.35;;;16.85;;
72115;SDS011;59991;52.140;5.428;2023-03-03T01:33:39;28.33;;;18.38;;
72115;SDS011;59991;52.140;5.428;2023-03-03T01:34:10;30.40;;;19.90;;
72115;SDS011;59991;52.140;5.428;2023-03-03T01:34:41;27.38;;;18.92;;
72115;SDS011;59991;52.140;5.428;2023-03-03T01:35:13;29.20;;;18.98;;
72115;SDS011;59991;52.140;5.428;2023-03-03T01:35:45;27.58;;;18.83;;
72115;SDS011;59991;52.140;5.428;2023-03-03T01:36:27;27.43;;;19.33;;
72115;SDS011;59991;52.140;5.428;2023-03-03T01:36:59;29.75;;;20.17;;
72115;SDS011;59991;52.140;5.428;2023-03-03T01:37:32;29.85;;;20.92;;
72115;SDS011;59991;52.140;5.428;2023-03-03T01:38:04;30.90;;;19.67;;
72115;SDS011;59991;52.140;5.428;2023-03-03T01:38:36;31.63;;;20.30;;
72115;SDS011;59991;52.140;5.428;2023-03-03T01:39:09;29.70;;;18.75;;
72115;SDS011;59991;52.140;5.428;2023-03-03T01:39:41;31.20;;;19.67;;
72115;SDS011;59991;52.140;5.428;2023-03-03T01:40:17;28.23;;;19.17;;
72115;SDS011;59991;52.140;5.428;2023-03-03T01:40:51;28.58;;;19.63;;
72115;SDS011;59991;52.140;5.428;2023-03-03T01:41:28;27.00;;;17.83;;
72115;SDS011;59991;52.140;5.428;2023-03-03T01:42:03;26.20;;;18.20;;
72115;SDS011;59991;52.140;5.428;2023-03-03T01:42:35;27.92;;;18.13;;
72115;SDS011;59991;52.140;5.428;2023-03-03T01:43:06;29.15;;;18.83;;
72115;SDS011;59991;52.140;5.428;2023-03-03T01:43:42;27.80;;;19.92;;
72115;SDS011;59991;52.140;5.428;2023-03-03T01:44:15;28.80;;;18.85;;
72115;SDS011;59991;52.140;5.428;2023-03-03T01:44:47;31.35;;;19.63;;
72115;SDS011;59991;52.140;5.428;2023-03-03T01:45:23;26.77;;;18.65;;
72115;SDS011;59991;52.140;5.428;2023-03-03T01:46:46;28.00;;;19.95;;
72115;SDS011;59991;52.140;5.428;2023-03-03T01:47:27;27.23;;;17.45;;
72115;SDS011;59991;52.140;5.428;2023-03-03T01:48:05;28.03;;;19.03;;
72115;SDS011;59991;52.140;5.428;2023-03-03T01:48:43;29.17;;;18.42;;
72115;SDS011;59991;52.140;5.428;2023-03-03T01:49:17;32.72;;;20.50;;
72115;SDS011;59991;52.140;5.428;2023-03-03T01:49:53;29.27;;;20.02;;
72115;SDS011;59991;52.140;5.428;2023-03-03T01:50:44;31.40;;;19.55;;
72115;SDS011;59991;52.140;5.428;2023-03-03T01:51:25;26.55;;;17.42;;
72115;SDS011;59991;52.140;5.428;2023-03-03T01:52:00;28.00;;;18.88;;
72115;SDS011;59991;52.140;5.428;2023-03-03T01:53:18;33.33;;;20.20;;
72115;SDS011;59991;52.140;5.428;2023-03-03T01:53:53;30.98;;;19.77;;
72115;SDS011;59991;52.140;5.428;2023-03-03T01:54:37;34.93;;;21.57;;
72115;SDS011;59991;52.140;5.428;2023-03-03T01:55:14;31.65;;;18.92;;
72115;SDS011;59991;52.140;5.428;2023-03-03T01:55:51;26.23;;;18.30;;
72115;SDS011;59991;52.140;5.428;2023-03-03T01:56:23;28.23;;;18.75;;
72115;SDS011;59991;52.140;5.428;2023-03-03T01:56:58;33.17;;;22.05;;
72115;SDS011;59991;52.140;5.428;2023-03-03T01:57:34;32.65;;;20.40;;
72115;SDS011;59991;52.140;5.428;2023-03-03T01:58:10;30.63;;;19.98;;
72115;SDS011;59991;52.140;5.428;2023-03-03T01:58:50;30.45;;;19.75;;
72115;SDS011;59991;52.140;5.428;2023-03-03T01:59:25;30.92;;;20.25;;
72115;SDS011;59991;52.140;5.428;2023-03-03T02:00:02;32.97;;;19.52;;
72115;SDS011;59991;52.140;5.428;2023-03-03T02:00:37;28.60;;;20.33;;
72115;SDS011;59991;52.140;5.428;2023-03-03T02:01:13;31.52;;;20.13;;
72115;SDS011;59991;52.140;5.428;2023-03-03T02:01:47;29.88;;;20.13;;
72115;SDS011;59991;52.140;5.428;2023-03-03T02:02:19;31.13;;;21.35;;
72115;SDS011;59991;52.140;5.428;2023-03-03T02:02:52;29.20;;;19.70;;
72115;SDS011;59991;52.140;5.428;2023-03-03T02:03:25;30.27;;;20.15;;
72115;SDS011;59991;52.140;5.428;2023-03-03T02:03:57;30.23;;;19.70;;
72115;SDS011;59991;52.140;5.428;2023-03-03T02:04:29;29.60;;;20.33;;
72115;SDS011;59991;52.140;5.428;2023-03-03T02:05:00;33.42;;;21.98;;
72115;SDS011;59991;52.140;5.428;2023-03-03T02:05:32;29.77;;;18.63;;
72115;SDS011;59991;52.140;5.428;2023-03-03T02:06:07;30.50;;;20.53;;
72115;SDS011;59991;52.140;5.428;2023-03-03T02:06:46;32.90;;;20.65;;
72115;SDS011;59991;52.140;5.428;2023-03-03T02:07:22;31.15;;;19.92;;
72115;SDS011;59991;52.140;5.428;2023-03-03T02:07:55;30.98;;;20.48;;
72115;SDS011;59991;52.140;5.428;2023-03-03T02:08:30;30.92;;;21.60;;
72115;SDS011;59991;52.140;5.428;2023-03-03T02:10:35;29.10;;;19.42;;
72115;SDS011;59991;52.140;5.428;2023-03-03T02:11:07;30.40;;;20.10;;
72115;SDS011;59991;52.140;5.428;2023-03-03T02:11:39;30.30;;;20.42;;
72115;SDS011;59991;52.140;5.428;2023-03-03T02:12:14;30.77;;;19.67;;
72115;SDS011;59991;52.140;5.428;2023-03-03T02:12:50;29.50;;;19.23;;
72115;SDS011;59991;52.140;5.428;2023-03-03T02:13:23;35.22;;;20.52;;
72115;SDS011;59991;52.140;5.428;2023-03-03T02:13:54;28.90;;;18.80;;
72115;SDS011;59991;52.140;5.428;2023-03-03T02:14:25;30.45;;;20.75;;
72115;SDS011;59991;52.140;5.428;2023-03-03T02:14:57;26.75;;;18.40;;
72115;SDS011;59991;52.140;5.428;2023-03-03T02:15:29;29.92;;;19.10;;
72115;SDS011;59991;52.140;5.428;2023-03-03T02:16:03;29.60;;;20.58;;
72115;SDS011;59991;52.140;5.428;2023-03-03T02:16:34;31.33;;;19.58;;
72115;SDS011;59991;52.140;5.428;2023-03-03T02:17:06;31.55;;;19.85;;
72115;SDS011;59991;52.140;5.428;2023-03-03T02:17:37;29.97;;;18.90;;
72115;SDS011;59991;52.140;5.428;2023-03-03T02:18:13;33.30;;;19.80;;
72115;SDS011;59991;52.140;5.428;2023-03-03T02:18:47;26.58;;;18.77;;
72115;SDS011;59991;52.140;5.428;2023-03-03T02:19:23;30.75;;;20.65;;
72115;SDS011;59991;52.140;5.428;2023-03-03T02:20:06;28.85;;;19.25;;
72115;SDS011;59991;52.140;5.428;2023-03-03T02:21:31;29.83;;;18.48;;
72115;SDS011;59991;52.140;5.428;2023-03-03T02:22:02;27.20;;;18.30;;
72115;SDS011;59991;52.140;5.428;2023-03-03T02:22:40;30.30;;;19.20;;
72115;SDS011;59991;52.140;5.428;2023-03-03T02:23:29;26.80;;;16.67;;
72115;SDS011;59991;52.140;5.428;2023-03-03T02:25:05;27.13;;;16.67;;
72115;SDS011;59991;52.140;5.428;2023-03-03T02:25:43;28.00;;;18.30;;
72115;SDS011;59991;52.140;5.428;2023-03-03T02:26:25;30.70;;;19.25;;
72115;SDS011;59991;52.140;5.428;2023-03-03T02:26:58;32.47;;;19.52;;
72115;SDS011;59991;52.140;5.428;2023-03-03T02:27:30;29.08;;;17.63;;
72115;SDS011;59991;52.140;5.428;2023-03-03T02:28:02;29.02;;;18.98;;
72115;SDS011;59991;52.140;5.428;2023-03-03T02:28:35;28.23;;;18.45;;
72115;SDS011;59991;52.140;5.428;2023-03-03T02:29:08;31.15;;;18.88;;
72115;SDS011;59991;52.140;5.428;2023-03-03T02:29:40;27.95;;;17.65;;
72115;SDS011;59991;52.140;5.428;2023-03-03T02:30:16;31.73;;;19.63;;
72115;SDS011;59991;52.140;5.428;2023-03-03T02:30:53;27.42;;;18.25;;
72115;SDS011;59991;52.140;5.428;2023-03-03T02:31:26;26.90;;;17.42;;
72115;SDS011;59991;52.140;5.428;2023-03-03T02:31:59;28.70;;;19.30;;
72115;SDS011;59991;52.140;5.428;2023-03-03T02:32:31;29.48;;;18.77;;
72115;SDS011;59991;52.140;5.428;2023-03-03T02:33:02;29.23;;;18.67;;
72115;SDS011;59991;52.140;5.428;2023-03-03T02:33:34;30.52;;;18.48;;
72115;SDS011;59991;52.140;5.428;2023-03-03T02:34:05;27.60;;;18.48;;
72115;SDS011;59991;52.140;5.428;2023-03-03T02:34:47;28.40;;;19.63;;
72115;SDS011;59991;52.140;5.428;2023-03-03T02:35:42;30.45;;;19.27;;
72115;SDS011;59991;52.140;5.428;2023-03-03T02:36:13;29.40;;;18.93;;
72115;SDS011;59991;52.140;5.428;2023-03-03T02:36:46;27.50;;;18.92;;
72115;SDS011;59991;52.140;5.428;2023-03-03T02:37:18;26.73;;;18.27;;
72115;SDS011;59991;52.140;5.428;2023-03-03T02:37:50;28.40;;;19.33;;
72115;SDS011;59991;52.140;5.428;2023-03-03T02:38:26;28.40;;;17.35;;
72115;SDS011;59991;52.140;5.428;2023-03-03T02:39:04;28.70;;;18.42;;
72115;SDS011;59991;52.140;5.428;2023-03-03T02:39:43;26.65;;;16.98;;
72115;SDS011;59991;52.140;5.428;2023-03-03T02:40:15;28.90;;;19.63;;
72115;SDS011;59991;52.140;5.428;2023-03-03T02:41:35;28.27;;;18.15;;
72115;SDS011;59991;52.140;5.428;2023-03-03T02:42:15;28.50;;;18.80;;
72115;SDS011;59991;52.140;5.428;2023-03-03T02:42:51;30.25;;;18.77;;
72115;SDS011;59991;52.140;5.428;2023-03-03T02:43:26;28.63;;;18.20;;
72115;SDS011;59991;52.140;5.428;2023-03-03T02:44:40;28.52;;;18.35;;
72115;SDS011;59991;52.140;5.428;2023-03-03T02:45:11;27.42;;;18.33;;
72115;SDS011;59991;52.140;5.428;2023-03-03T02:45:43;32.03;;;19.23;;
72115;SDS011;59991;52.140;5.428;2023-03-03T02:46:15;28.75;;;19.92;;
72115;SDS011;59991;52.140;5.428;2023-03-03T02:46:48;28.55;;;20.17;;
72115;SDS011;59991;52.140;5.428;2023-03-03T02:47:20;31.05;;;19.70;;
72115;SDS011;59991;52.140;5.428;2023-03-03T02:47:52;29.60;;;20.23;;
72115;SDS011;59991;52.140;5.428;2023-03-03T02:48:23;28.83;;;19.45;;
72115;SDS011;59991;52.140;5.428;2023-03-03T02:48:54;31.88;;;20.52;;
72115;SDS011;59991;52.140;5.428;2023-03-03T02:49:27;31.63;;;19.58;;
72115;SDS011;59991;52.140;5.428;2023-03-03T02:50:02;31.42;;;19.40;;
72115;SDS011;59991;52.140;5.428;2023-03-03T02:50:33;31.90;;;20.38;;
72115;SDS011;59991;52.140;5.428;2023-03-03T02:51:05;29.83;;;20.00;;
72115;SDS011;59991;52.140;5.428;2023-03-03T02:51:36;30.90;;;20.30;;
72115;SDS011;59991;52.140;5.428;2023-03-03T02:52:08;36.03;;;21.80;;
72115;SDS011;59991;52.140;5.428;2023-03-03T02:52:41;30.55;;;19.17;;
72115;SDS011;59991;52.140;5.428;2023-03-03T02:53:13;32.90;;;21.77;;
72115;SDS011;59991;52.140;5.428;2023-03-03T02:53:44;31.05;;;20.35;;
72115;SDS011;59991;52.140;5.428;2023-03-03T02:54:17;35.53;;;21.73;;
72115;SDS011;59991;52.140;5.428;2023-03-03T02:54:50;32.55;;;21.50;;
72115;SDS011;59991;52.140;5.428;2023-03-03T02:55:21;31.52;;;19.92;;
72115;SDS011;59991;52.140;5.428;2023-03-03T02:55:53;30.23;;;20.10;;
72115;SDS011;59991;52.140;5.428;2023-03-03T02:56:25;31.55;;;20.65;;
72115;SDS011;59991;52.140;5.428;2023-03-03T02:56:57;31.77;;;20.45;;
72115;SDS011;59991;52.140;5.428;2023-03-03T02:57:29;36.63;;;21.63;;
72115;SDS011;59991;52.140;5.428;2023-03-03T02:58:01;32.42;;;20.88;;
72115;SDS011;59991;52.140;5.428;2023-03-03T02:58:32;33.37;;;19.50;;
72115;SDS011;59991;52.140;5.428;2023-03-03T02:59:03;31.60;;;20.90;;
72115;SDS011;59991;52.140;5.428;2023-03-03T02:59:35;33.78;;;20.77;;
72115;SDS011;59991;52.140;5.428;2023-03-03T03:00:07;34.13;;;22.02;;
72115;SDS011;59991;52.140;5.428;2023-03-03T03:00:39;34.65;;;19.85;;
72115;SDS011;59991;52.140;5.428;2023-03-03T03:01:10;31.13;;;19.90;;
72115;SDS011;59991;52.140;5.428;2023-03-03T03:01:42;32.42;;;20.25;;
72115;SDS011;59991;52.140;5.428;2023-03-03T03:02:14;34.70;;;21.27;;
72115;SDS011;59991;52.140;5.428;2023-03-03T03:02:46;30.60;;;19.92;;
72115;SDS011;59991;52.140;5.428;2023-03-03T03:03:17;31.23;;;19.60;;
72115;SDS011;59991;52.140;5.428;2023-03-03T03:03:48;30.50;;;20.47;;
72115;SDS011;59991;52.140;5.428;2023-03-03T03:04:21;30.85;;;19.48;;
72115;SDS011;59991;52.140;5.428;2023-03-03T03:04:55;28.77;;;18.83;;
72115;SDS011;59991;52.140;5.428;2023-03-03T03:05:26;31.08;;;18.40;;
72115;SDS011;59991;52.140;5.428;2023-03-03T03:05:57;31.33;;;19.30;;
72115;SDS011;59991;52.140;5.428;2023-03-03T03:06:29;30.35;;;19.70;;
72115;SDS011;59991;52.140;5.428;2023-03-03T03:07:00;29.65;;;18.63;;
72115;SDS011;59991;52.140;5.428;2023-03-03T03:07:32;31.63;;;19.25;;
72115;SDS011;59991;52.140;5.428;2023-03-03T03:08:03;32.30;;;20.60;;
72115;SDS011;59991;52.140;5.428;2023-03-03T03:08:35;28.42;;;19.60;;
72115;SDS011;59991;52.140;5.428;2023-03-03T03:09:06;30.57;;;19.07;;
72115;SDS011;59991;52.140;5.428;2023-03-03T03:09:39;31.67;;;20.02;;
72115;SDS011;59991;52.140;5.428;2023-03-03T03:10:11;30.73;;;20.45;;
72115;SDS011;59991;52.140;5.428;2023-03-03T03:10:42;32.03;;;20.52;;
72115;SDS011;59991;52.140;5.428;2023-03-03T03:11:13;34.75;;;19.65;;
72115;SDS011;59991;52.140;5.428;2023-03-03T03:11:45;29.70;;;19.23;;
72115;SDS011;59991;52.140;5.428;2023-03-03T03:12:16;31.95;;;20.42;;
72115;SDS011;59991;52.140;5.428;2023-03-03T03:12:49;33.58;;;19.20;;
72115;SDS011;59991;52.140;5.428;2023-03-03T03:13:20;35.10;;;20.77;;
72115;SDS011;59991;52.140;5.428;2023-03-03T03:13:52;31.15;;;19.15;;
72115;SDS011;59991;52.140;5.428;2023-03-03T03:14:24;32.27;;;19.90;;
72115;SDS011;59991;52.140;5.428;2023-03-03T03:14:55;32.53;;;20.45;;
72115;SDS011;59991;52.140;5.428;2023-03-03T03:15:26;31.15;;;19.55;;
72115;SDS011;59991;52.140;5.428;2023-03-03T03:15:58;29.75;;;20.95;;
72115;SDS011;59991;52.140;5.428;2023-03-03T03:16:31;32.80;;;21.27;;
72115;SDS011;59991;52.140;5.428;2023-03-03T03:17:02;29.75;;;19.33;;
72115;SDS011;59991;52.140;5.428;2023-03-03T03:17:37;32.70;;;19.65;;
72115;SDS011;59991;52.140;5.428;2023-03-03T03:18:09;32.63;;;20.52;;
72115;SDS011;59991;52.140;5.428;2023-03-03T03:18:40;32.42;;;20.77;;
72115;SDS011;59991;52.140;5.428;2023-03-03T03:19:12;30.58;;;20.52;;
72115;SDS011;59991;52.140;5.428;2023-03-03T03:19:43;31.53;;;21.03;;
72115;SDS011;59991;52.140;5.428;2023-03-03T03:20:15;31.67;;;20.23;;
72115;SDS011;59991;52.140;5.428;2023-03-03T03:20:47;30.73;;;20.15;;
72115;SDS011;59991;52.140;5.428;2023-03-03T03:21:18;30.00;;;20.27;;
72115;SDS011;59991;52.140;5.428;2023-03-03T03:21:50;33.40;;;20.67;;
72115;SDS011;59991;52.140;5.428;2023-03-03T03:22:21;30.77;;;19.88;;
72115;SDS011;59991;52.140;5.428;2023-03-03T03:22:53;35.85;;;20.90;;
72115;SDS011;59991;52.140;5.428;2023-03-03T03:23:24;35.30;;;21.65;;
72115;SDS011;59991;52.140;5.428;2023-03-03T03:23:56;33.50;;;21.92;;
72115;SDS011;59991;52.140;5.428;2023-03-03T03:24:28;30.95;;;20.15;;
72115;SDS011;59991;52.140;5.428;2023-03-03T03:24:59;35.33;;;21.87;;
72115;SDS011;59991;52.140;5.428;2023-03-03T03:25:31;31.73;;;20.20;;
72115;SDS011;59991;52.140;5.428;2023-03-03T03:26:03;29.80;;;20.60;;
72115;SDS011;59991;52.140;5.428;2023-03-03T03:26:35;33.30;;;21.38;;
72115;SDS011;59991;52.140;5.428;2023-03-03T03:27:06;36.55;;;22.58;;
72115;SDS011;59991;52.140;5.428;2023-03-03T03:27:38;33.40;;;20.98;;
72115;SDS011;59991;52.140;5.428;2023-03-03T03:28:10;35.70;;;22.27;;
72115;SDS011;59991;52.140;5.428;2023-03-03T03:28:43;35.58;;;20.85;;
72115;SDS011;59991;52.140;5.428;2023-03-03T03:29:14;34.65;;;22.15;;
72115;SDS011;59991;52.140;5.428;2023-03-03T03:29:45;34.78;;;20.63;;
72115;SDS011;59991;52.140;5.428;2023-03-03T03:30:17;31.83;;;20.23;;
72115;SDS011;59991;52.140;5.428;2023-03-03T03:30:50;33.28;;;20.25;;
72115;SDS011;59991;52.140;5.428;2023-03-03T03:31:22;35.67;;;20.60;;